createdAt,value
2022-08-21T00:00:45.833Z,17.70
2022-08-21T00:03:17.882Z,17.80
2022-08-21T00:05:51.350Z,17.70
2022-08-21T00:08:23.107Z,17.70
2022-08-21T00:10:54.979Z,17.70
2022-08-21T00:13:26.727Z,17.70
2022-08-21T00:15:59.371Z,17.70
2022-08-21T00:18:31.954Z,17.60
2022-08-21T00:21:04.416Z,17.60
2022-08-21T00:23:36.479Z,17.60
2022-08-21T00:26:08.846Z,17.60
2022-08-21T00:28:40.589Z,17.60
2022-08-21T00:31:12.708Z,17.60
2022-08-21T00:33:45.062Z,17.60
2022-08-21T00:36:17.054Z,17.60
2022-08-21T00:38:48.783Z,17.60
2022-08-21T00:41:37.274Z,17.60
2022-08-21T00:44:15.773Z,17.60
2022-08-21T00:46:47.613Z,17.50
2022-08-21T00:49:19.417Z,17.50
2022-08-21T00:51:55.926Z,17.50
2022-08-21T00:54:30.688Z,17.50
2022-08-21T00:57:08.208Z,17.50
2022-08-21T00:59:41.831Z,17.50
2022-08-21T01:02:14.201Z,17.50
2022-08-21T01:04:45.935Z,17.50
2022-08-21T01:07:18.311Z,17.50
2022-08-21T01:09:52.640Z,17.40
2022-08-21T01:12:24.903Z,17.30
2022-08-21T01:14:56.869Z,17.30
2022-08-21T01:17:28.848Z,17.30
2022-08-21T01:20:01.470Z,17.30
2022-08-21T01:22:33.724Z,17.20
2022-08-21T01:25:07.838Z,17.20
2022-08-21T01:27:39.700Z,17.20
2022-08-21T01:30:24.134Z,17.20
2022-08-21T01:32:57.117Z,17.30
2022-08-21T01:35:29.102Z,17.30
2022-08-21T01:38:00.863Z,17.30
2022-08-21T01:40:32.663Z,17.30
2022-08-21T01:43:04.589Z,17.30
2022-08-21T01:45:36.537Z,17.20
2022-08-21T01:48:08.329Z,17.20
2022-08-21T01:50:40.068Z,17.20
2022-08-21T01:53:11.835Z,17.10
2022-08-21T01:55:44.388Z,16.00
2022-08-21T01:58:16.201Z,17.00
2022-08-21T02:00:48.022Z,17.00
2022-08-21T02:03:26.319Z,17.00
2022-08-21T02:06:08.910Z,17.00
2022-08-21T02:08:41.645Z,17.00
2022-08-21T02:11:13.633Z,17.00
2022-08-21T02:13:45.363Z,17.00
2022-08-21T02:16:19.405Z,17.10
2022-08-21T02:18:51.415Z,17.00
2022-08-21T02:21:23.816Z,17.00
2022-08-21T02:23:55.571Z,17.10
2022-08-21T02:26:27.569Z,17.10
2022-08-21T02:28:59.913Z,17.10
2022-08-21T02:31:32.299Z,17.10
2022-08-21T02:34:04.195Z,17.20
2022-08-21T02:36:36.094Z,17.20
2022-08-21T02:39:07.805Z,17.30
2022-08-21T02:41:39.548Z,17.30
2022-08-21T02:44:11.265Z,17.20
2022-08-21T02:46:43.005Z,17.20
2022-08-21T02:49:14.787Z,17.10
2022-08-21T02:51:46.541Z,17.10
2022-08-21T02:54:18.299Z,17.10
2022-08-21T02:56:50.056Z,17.10
2022-08-21T02:59:21.927Z,17.10
2022-08-21T03:01:53.920Z,17.10
2022-08-21T03:04:25.699Z,17.10
2022-08-21T03:06:57.488Z,17.10
2022-08-21T03:09:29.275Z,17.20
2022-08-21T03:12:01.023Z,17.10
2022-08-21T03:14:32.813Z,15.50
2022-08-21T03:17:04.714Z,17.20
2022-08-21T03:19:36.444Z,17.10
2022-08-21T03:22:08.386Z,17.10
2022-08-21T03:24:40.137Z,17.10
2022-08-21T03:27:16.351Z,17.10
2022-08-21T03:29:48.124Z,17.00
2022-08-21T03:32:20.502Z,17.00
2022-08-21T03:34:52.251Z,17.00
2022-08-21T03:37:25.399Z,17.00
2022-08-21T03:39:57.450Z,16.90
2022-08-21T03:42:29.246Z,16.90
2022-08-21T03:45:02.020Z,16.90
2022-08-21T03:47:34.114Z,16.90
2022-08-21T03:50:06.646Z,16.90
2022-08-21T03:52:38.411Z,17.00
2022-08-21T03:55:10.135Z,17.00
2022-08-21T03:57:41.890Z,17.00
2022-08-21T04:00:15.741Z,16.90
2022-08-21T04:02:47.956Z,16.90
2022-08-21T04:05:28.220Z,16.80
2022-08-21T04:08:03.532Z,16.80
2022-08-21T04:10:38.180Z,16.70
2022-08-21T04:13:09.978Z,16.70
2022-08-21T04:15:42.162Z,16.60
2022-08-21T04:18:14.122Z,16.60
2022-08-21T04:20:50.719Z,16.60
2022-08-21T04:23:23.554Z,16.60
2022-08-21T04:25:57.446Z,16.70
2022-08-21T04:28:30.375Z,16.70
2022-08-21T04:31:03.064Z,16.70
2022-08-21T04:33:35.143Z,16.70
2022-08-21T04:36:07.863Z,16.70
2022-08-21T04:38:39.613Z,16.70
2022-08-21T04:41:16.519Z,16.60
2022-08-21T04:43:52.588Z,16.60
2022-08-21T04:46:24.830Z,16.70
2022-08-21T04:48:56.844Z,16.70
2022-08-21T04:51:33.243Z,16.70
2022-08-21T04:54:11.497Z,16.80
2022-08-21T04:56:47.944Z,16.80
2022-08-21T04:59:31.487Z,16.90
2022-08-21T05:02:04.396Z,16.90
2022-08-21T05:04:42.872Z,16.90
2022-08-21T05:07:41.935Z,16.90
2022-08-21T05:10:13.985Z,16.90
2022-08-21T05:12:46.272Z,16.90
2022-08-21T05:15:18.173Z,16.90
2022-08-21T05:17:55.462Z,16.90
2022-08-21T05:20:35.372Z,16.90
2022-08-21T05:23:12.357Z,16.90
2022-08-21T05:25:44.541Z,16.90
2022-08-21T05:28:18.929Z,16.90
2022-08-21T05:30:51.396Z,16.90
2022-08-21T05:33:23.543Z,16.80
2022-08-21T05:35:58.482Z,16.80
2022-08-21T05:38:30.321Z,16.80
2022-08-21T05:41:02.160Z,16.90
2022-08-21T05:43:37.088Z,16.90
2022-08-21T05:46:09.319Z,16.90
2022-08-21T05:48:41.095Z,17.00
2022-08-21T05:51:16.112Z,17.00
2022-08-21T05:53:48.420Z,17.00
2022-08-21T05:56:20.432Z,17.00
2022-08-21T05:58:52.165Z,17.10
2022-08-21T06:01:23.939Z,17.10
2022-08-21T06:03:57.227Z,17.10
2022-08-21T06:06:29.998Z,17.00
2022-08-21T06:09:02.075Z,16.90
2022-08-21T06:11:34.424Z,16.90
2022-08-21T06:14:07.465Z,16.80
2022-08-21T06:16:39.195Z,16.80
2022-08-21T06:19:10.911Z,16.80
2022-08-21T06:21:42.618Z,16.90
2022-08-21T06:24:14.358Z,16.90
2022-08-21T06:26:47.349Z,15.60
2022-08-21T06:29:20.729Z,17.00
2022-08-21T06:31:52.737Z,17.00
2022-08-21T06:34:24.463Z,17.10
2022-08-21T06:36:56.177Z,17.10
2022-08-21T06:39:30.697Z,17.20
2022-08-21T06:42:04.375Z,17.30
2022-08-21T06:44:44.484Z,17.30
2022-08-21T06:47:16.368Z,17.30
2022-08-21T06:49:48.109Z,17.30
2022-08-21T06:52:21.216Z,17.30
2022-08-21T06:54:52.951Z,17.40
2022-08-21T06:57:26.526Z,17.40
2022-08-21T06:59:58.285Z,17.40
2022-08-21T07:02:30.499Z,17.40
2022-08-21T07:05:17.671Z,17.40
2022-08-21T07:07:50.371Z,17.40
2022-08-21T07:10:22.935Z,17.50
2022-08-21T07:13:00.644Z,17.60
2022-08-21T07:15:33.173Z,17.50
2022-08-21T07:18:05.401Z,17.60
2022-08-21T07:20:37.576Z,17.60
2022-08-21T07:23:27.189Z,17.70
2022-08-21T07:26:01.416Z,17.90
2022-08-21T07:28:33.578Z,17.90
2022-08-21T07:31:06.108Z,17.90
2022-08-21T07:33:37.897Z,17.90
2022-08-21T07:36:10.212Z,18.10
2022-08-21T07:38:42.140Z,18.10
2022-08-21T07:41:21.063Z,18.20
2022-08-21T07:43:53.750Z,18.20
2022-08-21T07:46:26.550Z,18.30
2022-08-21T07:48:58.312Z,18.30
2022-08-21T07:51:30.263Z,18.30
2022-08-21T07:54:02.654Z,18.40
2022-08-21T07:56:34.375Z,18.40
2022-08-21T07:59:06.198Z,18.40
2022-08-21T08:01:38.006Z,18.40
2022-08-21T08:04:09.785Z,18.40
2022-08-21T08:06:41.530Z,18.50
2022-08-21T08:09:13.540Z,18.50
2022-08-21T08:11:45.342Z,18.60
2022-08-21T08:14:18.113Z,18.70
2022-08-21T08:16:49.828Z,18.80
2022-08-21T08:19:21.579Z,18.80
2022-08-21T08:21:53.990Z,18.90
2022-08-21T08:24:25.721Z,18.80
2022-08-21T08:26:58.056Z,18.70
2022-08-21T08:29:31.848Z,18.60
2022-08-21T08:32:05.172Z,18.60
2022-08-21T08:34:38.518Z,18.60
2022-08-21T08:37:11.009Z,18.60
2022-08-21T08:39:42.842Z,18.60
2022-08-21T08:42:32.780Z,18.60
2022-08-21T08:45:13.201Z,18.60
2022-08-21T08:47:48.712Z,18.70
2022-08-21T08:50:48.324Z,18.70
2022-08-21T08:53:31.351Z,18.70
2022-08-21T08:56:05.519Z,18.70
2022-08-21T08:58:44.503Z,18.80
2022-08-21T09:01:21.375Z,18.90
2022-08-21T09:03:53.328Z,19.00
2022-08-21T09:06:42.854Z,19.10
2022-08-21T09:09:26.256Z,19.30
2022-08-21T09:12:17.726Z,19.40
2022-08-21T09:15:15.757Z,19.50
2022-08-21T09:18:11.864Z,19.60
2022-08-21T09:21:05.536Z,19.80
2022-08-21T09:24:00.382Z,19.90
2022-08-21T09:26:41.722Z,20.00
2022-08-21T09:29:13.801Z,20.00
2022-08-21T09:31:45.576Z,20.10
2022-08-21T09:34:28.026Z,20.30
2022-08-21T09:37:00.501Z,20.30
2022-08-21T09:39:42.581Z,20.40
2022-08-21T09:42:28.644Z,20.50
2022-08-21T09:45:17.577Z,20.40
2022-08-21T09:47:49.406Z,20.40
2022-08-21T09:50:25.938Z,20.40
2022-08-21T09:53:01.139Z,20.30
2022-08-21T09:55:59.044Z,19.90
2022-08-21T09:58:33.757Z,20.30
2022-08-21T10:01:13.640Z,20.50
2022-08-21T10:03:46.896Z,20.60
2022-08-21T10:06:26.243Z,20.70
2022-08-21T10:09:18.740Z,20.80
2022-08-21T10:12:11.080Z,21.00
2022-08-21T10:14:56.723Z,21.20
2022-08-21T10:17:53.567Z,21.40
2022-08-21T10:20:37.689Z,21.50
2022-08-21T10:23:27.462Z,21.70
2022-08-21T10:26:20.208Z,22.00
2022-08-21T10:28:57.951Z,22.30
2022-08-21T10:31:44.708Z,22.40
2022-08-21T10:34:43.982Z,22.40
2022-08-21T10:37:28.703Z,22.50
2022-08-21T10:40:28.998Z,22.70
2022-08-21T10:43:26.623Z,22.80
2022-08-21T10:46:16.766Z,23.00
2022-08-21T10:48:58.012Z,23.30
2022-08-21T10:51:43.136Z,23.40
2022-08-21T10:54:39.887Z,23.20
2022-08-21T10:57:38.881Z,23.20
2022-08-21T11:00:15.351Z,23.30
2022-08-21T11:03:13.075Z,23.50
2022-08-21T11:05:57.966Z,23.40
2022-08-21T11:08:37.706Z,23.30
2022-08-21T11:11:12.612Z,23.20
2022-08-21T11:13:55.132Z,23.10
2022-08-21T11:16:32.853Z,23.10
2022-08-21T11:19:31.594Z,23.20
2022-08-21T11:22:30.181Z,23.10
2022-08-21T11:25:08.177Z,23.30
2022-08-21T11:27:39.864Z,23.60
2022-08-21T11:30:12.802Z,23.90
2022-08-21T11:32:53.259Z,23.90
2022-08-21T11:35:58.131Z,23.80
2022-08-21T11:38:44.808Z,23.80
2022-08-21T11:41:25.864Z,23.60
2022-08-21T11:44:18.070Z,23.50
2022-08-21T11:46:59.694Z,23.60
2022-08-21T11:49:56.291Z,23.70
2022-08-21T11:52:40.879Z,23.80
2022-08-21T11:55:26.035Z,24.00
2022-08-21T11:58:03.402Z,24.10
2022-08-21T12:01:00.535Z,24.10
2022-08-21T12:03:35.626Z,22.40
2022-08-21T12:06:09.690Z,24.10
2022-08-21T12:08:44.666Z,23.90
2022-08-21T12:11:19.537Z,23.90
2022-08-21T12:14:15.639Z,24.00
2022-08-21T12:16:50.322Z,24.00
2022-08-21T12:19:21.989Z,24.10
2022-08-21T12:22:05.656Z,24.20
2022-08-21T12:24:42.844Z,24.30
2022-08-21T12:27:29.479Z,24.30
2022-08-21T12:30:05.845Z,24.40
2022-08-21T12:32:47.616Z,24.30
2022-08-21T12:35:25.666Z,24.50
2022-08-21T12:38:19.018Z,24.60
2022-08-21T12:41:04.764Z,24.50
2022-08-21T12:43:44.386Z,24.50
2022-08-21T12:46:19.935Z,24.60
2022-08-21T12:49:02.424Z,24.60
2022-08-21T12:51:48.602Z,24.70
2022-08-21T12:54:25.900Z,24.70
2022-08-21T12:57:00.723Z,24.80
2022-08-21T12:59:33.593Z,24.80
2022-08-21T13:02:18.356Z,24.80
2022-08-21T13:04:51.239Z,24.80
2022-08-21T13:07:28.931Z,25.00
2022-08-21T13:10:20.956Z,24.90
2022-08-21T13:12:56.928Z,24.90
2022-08-21T13:15:36.952Z,26.80
2022-08-21T13:18:09.392Z,25.00
2022-08-21T13:20:43.306Z,25.10
2022-08-21T13:23:27.768Z,25.20
2022-08-21T13:25:59.864Z,25.30
2022-08-21T13:28:38.574Z,25.50
2022-08-21T13:31:11.371Z,25.70
2022-08-21T13:33:43.315Z,26.00
2022-08-21T13:36:21.160Z,25.90
2022-08-21T13:38:55.076Z,25.70
2022-08-21T13:41:31.871Z,25.60
2022-08-21T13:44:20.687Z,25.60
2022-08-21T13:46:54.664Z,25.60
2022-08-21T13:49:33.516Z,25.60
2022-08-21T13:52:14.535Z,25.40
2022-08-21T13:54:57.917Z,25.10
2022-08-21T13:57:33.375Z,25.10
2022-08-21T14:00:35.648Z,25.30
2022-08-21T14:03:10.647Z,25.60
2022-08-21T14:05:47.193Z,25.80
2022-08-21T14:08:30.687Z,26.00
2022-08-21T14:11:06.023Z,25.70
2022-08-21T14:14:11.708Z,25.30
2022-08-21T14:16:53.931Z,25.40
2022-08-21T14:19:40.965Z,25.50
2022-08-21T14:22:33.657Z,25.70
2022-08-21T14:25:10.405Z,25.80
2022-08-21T14:27:52.471Z,26.10
2022-08-21T14:30:34.155Z,26.10
2022-08-21T14:33:11.726Z,26.00
2022-08-21T14:35:43.881Z,26.00
2022-08-21T14:38:17.396Z,25.90
2022-08-21T14:40:52.025Z,25.70
2022-08-21T14:43:26.209Z,25.80
2022-08-21T14:45:58.074Z,25.80
2022-08-21T14:48:29.822Z,25.90
2022-08-21T14:51:01.551Z,25.80
2022-08-21T14:53:33.334Z,25.70
2022-08-21T14:56:08.197Z,25.60
2022-08-21T14:58:42.963Z,25.70
2022-08-21T15:01:16.557Z,25.80
2022-08-21T15:03:49.430Z,25.90
2022-08-21T15:06:22.446Z,26.00
2022-08-21T15:08:54.257Z,26.20
2022-08-21T15:11:41.885Z,26.40
2022-08-21T15:14:29.819Z,26.50
2022-08-21T15:17:02.151Z,26.60
2022-08-21T15:19:34.342Z,26.70
2022-08-21T15:22:06.812Z,26.50
2022-08-21T15:24:50.713Z,26.50
2022-08-21T15:27:22.446Z,26.50
2022-08-21T15:29:55.203Z,26.50
2022-08-21T15:32:29.961Z,26.60
2022-08-21T15:35:02.517Z,26.60
2022-08-21T15:37:34.449Z,26.40
2022-08-21T15:40:08.180Z,26.10
2022-08-21T15:42:41.407Z,26.00
2022-08-21T15:45:13.820Z,25.90
2022-08-21T15:47:46.783Z,26.00
2022-08-21T15:50:19.672Z,26.00
2022-08-21T15:52:51.675Z,26.10
2022-08-21T15:55:23.561Z,26.00
2022-08-21T15:57:56.820Z,26.10
2022-08-21T16:00:32.179Z,26.10
2022-08-21T16:03:07.357Z,26.10
2022-08-21T16:05:39.169Z,26.20
2022-08-21T16:08:11.888Z,26.30
2022-08-21T16:10:43.683Z,26.30
2022-08-21T16:13:27.643Z,26.20
2022-08-21T16:15:59.969Z,26.10
2022-08-21T16:18:32.458Z,26.00
2022-08-21T16:21:04.434Z,25.90
2022-08-21T16:23:39.008Z,25.90
2022-08-21T16:26:14.145Z,25.80
2022-08-21T16:28:53.376Z,25.80
2022-08-21T16:31:27.721Z,25.70
2022-08-21T16:33:59.906Z,25.70
2022-08-21T16:36:31.700Z,25.60
2022-08-21T16:39:03.816Z,25.60
2022-08-21T16:41:36.471Z,25.50
2022-08-21T16:44:09.733Z,25.50
2022-08-21T16:46:43.543Z,25.40
2022-08-21T16:49:15.310Z,25.30
2022-08-21T16:51:47.448Z,25.30
2022-08-21T16:54:19.302Z,25.20
2022-08-21T16:56:51.418Z,25.20
2022-08-21T16:59:26.347Z,25.20
2022-08-21T17:01:58.223Z,25.20
2022-08-21T17:04:31.104Z,25.30
2022-08-21T17:07:02.834Z,25.10
2022-08-21T17:09:34.563Z,25.00
2022-08-21T17:12:07.870Z,25.00
2022-08-21T17:14:39.662Z,24.80
2022-08-21T17:17:11.977Z,23.20
2022-08-21T17:19:44.297Z,24.60
2022-08-21T17:22:16.201Z,24.40
2022-08-21T17:24:48.027Z,24.40
2022-08-21T17:27:23.155Z,24.30
2022-08-21T17:29:58.909Z,24.20
2022-08-21T17:32:31.087Z,24.10
2022-08-21T17:35:04.084Z,23.90
2022-08-21T17:37:36.284Z,23.80
2022-08-21T17:40:14.407Z,23.80
2022-08-21T17:42:48.291Z,23.60
2022-08-21T17:45:20.813Z,23.60
2022-08-21T17:47:52.563Z,23.50
2022-08-21T17:50:24.324Z,23.40
2022-08-21T17:52:56.123Z,23.30
2022-08-21T17:55:29.455Z,23.20
2022-08-21T17:58:03.626Z,23.20
2022-08-21T18:00:36.297Z,23.10
2022-08-21T18:03:19.447Z,23.00
2022-08-21T18:05:53.764Z,22.90
2022-08-21T18:08:25.688Z,22.90
2022-08-21T18:10:59.056Z,22.80
2022-08-21T18:13:35.579Z,22.70
2022-08-21T18:16:08.214Z,22.70
2022-08-21T18:18:43.594Z,22.60
2022-08-21T18:21:15.786Z,22.50
2022-08-21T18:23:47.659Z,22.50
2022-08-21T18:26:26.708Z,22.40
2022-08-21T18:29:01.082Z,22.30
2022-08-21T18:31:34.983Z,22.30
2022-08-21T18:34:22.556Z,22.20
2022-08-21T18:36:55.208Z,22.20
2022-08-21T18:39:36.918Z,22.10
2022-08-21T18:42:13.430Z,22.10
2022-08-21T18:44:48.915Z,22.00
2022-08-21T18:47:33.587Z,21.90
2022-08-21T18:52:58.468Z,21.60
2022-08-21T18:55:31.465Z,21.50
2022-08-21T18:58:04.045Z,21.40
2022-08-21T19:00:45.537Z,21.30
2022-08-21T19:03:22.779Z,21.20
2022-08-21T19:05:55.836Z,21.20
2022-08-21T19:08:28.723Z,21.10
2022-08-21T19:11:02.392Z,21.00
2022-08-21T19:13:35.651Z,20.90
2022-08-21T19:16:09.758Z,20.90
2022-08-21T19:18:41.926Z,20.80
2022-08-21T19:21:14.120Z,20.70
2022-08-21T19:23:52.644Z,20.60
2022-08-21T19:26:27.442Z,20.60
2022-08-21T19:29:02.089Z,20.50
2022-08-21T19:31:43.370Z,20.50
2022-08-21T19:34:18.781Z,20.40
2022-08-21T19:36:50.614Z,20.30
2022-08-21T19:39:23.906Z,20.20
2022-08-21T19:41:58.893Z,20.10
2022-08-21T19:44:31.696Z,20.00
2022-08-21T19:47:09.742Z,19.90
2022-08-21T19:49:46.215Z,19.80
2022-08-21T19:52:18.652Z,19.80
2022-08-21T19:54:50.680Z,19.70
2022-08-21T19:57:22.447Z,19.70
2022-08-21T19:59:54.199Z,19.60
2022-08-21T20:02:26.925Z,19.60
2022-08-21T20:04:58.932Z,19.60
2022-08-21T20:07:30.684Z,19.50
2022-08-21T20:10:06.300Z,19.50
2022-08-21T20:12:38.359Z,19.50
2022-08-21T20:15:10.119Z,19.40
2022-08-21T20:17:43.071Z,19.30
2022-08-21T20:20:15.077Z,19.20
2022-08-21T20:22:46.829Z,19.20
2022-08-21T20:25:21.209Z,19.20
2022-08-21T20:27:53.240Z,19.10
2022-08-21T20:30:25.276Z,19.00
2022-08-21T20:32:57.892Z,18.90
2022-08-21T20:35:29.859Z,18.90
2022-08-21T20:38:01.706Z,18.80
2022-08-21T20:40:34.715Z,18.80
2022-08-21T20:43:07.788Z,18.80
2022-08-21T20:45:45.251Z,18.80
2022-08-21T20:48:23.560Z,18.90
2022-08-21T20:51:13.313Z,18.90
2022-08-21T20:53:51.285Z,18.90
2022-08-21T20:56:56.088Z,18.80
2022-08-21T20:59:35.299Z,18.80
2022-08-21T21:02:29.179Z,18.80
2022-08-21T21:05:12.514Z,18.80
2022-08-21T21:08:04.002Z,18.80
2022-08-21T21:10:57.851Z,18.80
2022-08-21T21:13:54.243Z,18.70
2022-08-21T21:16:51.345Z,18.60
2022-08-21T21:19:42.284Z,18.60
2022-08-21T21:22:34.351Z,18.60
2022-08-21T21:25:25.014Z,18.50
2022-08-21T21:28:08.018Z,18.40
2022-08-21T21:30:46.982Z,18.40
2022-08-21T21:33:23.919Z,18.40
2022-08-21T21:36:18.709Z,18.30
2022-08-21T21:39:12.729Z,18.20
2022-08-21T21:41:58.991Z,18.10
2022-08-21T21:44:48.813Z,18.20
2022-08-21T21:47:40.621Z,18.10
2022-08-21T21:50:23.111Z,18.10
2022-08-21T21:53:02.740Z,18.10
2022-08-21T21:55:46.299Z,18.10
2022-08-21T21:58:33.456Z,18.00
2022-08-21T22:01:28.555Z,18.00
2022-08-21T22:04:28.517Z,18.00
2022-08-21T22:10:30.575Z,17.90
2022-08-21T22:13:39.316Z,17.90
2022-08-21T22:16:11.768Z,17.90
2022-08-21T22:18:54.806Z,17.90
2022-08-21T22:21:39.700Z,17.80
2022-08-21T22:24:22.335Z,17.80
2022-08-21T22:27:01.972Z,17.70
2022-08-21T22:29:54.422Z,17.80
2022-08-21T22:32:37.363Z,17.70
2022-08-21T22:35:21.466Z,17.60
2022-08-21T22:37:56.927Z,17.60
2022-08-21T22:40:35.398Z,17.60
2022-08-21T22:43:14.699Z,17.60
2022-08-21T22:46:09.951Z,17.60
2022-08-21T22:48:54.334Z,17.60
2022-08-21T22:51:32.338Z,17.60
2022-08-21T22:54:05.589Z,17.50
2022-08-21T22:56:59.056Z,17.50
2022-08-21T22:59:35.029Z,17.50
2022-08-21T23:02:41.008Z,17.50
2022-08-21T23:05:25.252Z,19.20
2022-08-21T23:08:00.999Z,17.40
2022-08-21T23:10:41.695Z,17.40
2022-08-21T23:13:16.420Z,17.40
2022-08-21T23:16:01.459Z,17.30
2022-08-21T23:18:33.852Z,17.40
2022-08-21T23:21:31.168Z,17.40
2022-08-21T23:24:32.348Z,17.30
2022-08-21T23:27:15.513Z,17.30
2022-08-21T23:30:12.320Z,17.30
2022-08-21T23:32:57.154Z,17.40
2022-08-21T23:36:01.168Z,17.40
2022-08-21T23:38:53.338Z,17.40
2022-08-21T23:41:54.942Z,17.40
2022-08-21T23:44:41.115Z,17.50
2022-08-21T23:47:43.184Z,17.50
2022-08-21T23:50:19.085Z,17.50
2022-08-21T23:53:08.859Z,17.60
2022-08-21T23:55:49.026Z,17.60
2022-08-21T23:58:39.427Z,17.60
